Lazy 5 Park, Sparks, Nevada Weather observations

Data are for 10 minute period ending at time listed.
 Day   Time   Solar   Ave.   Ave.  Ave.  Vector  Max.   Baro.   Total    
  of    of     Rad.   Air    Rel.  Wind   Wind   Wind  Press.  Precip.   
Year   Day            Temp.  Hum.  Speed  Dir.   Gust                    
2026   (PST)  Kw/m2    F      %     mph   deg.    mph    mb.     in.     
-------------------------------------------------------------------------
 122   18:30   0.01   55.6    63    5.9    93    10.3   99999.0    0.00 
 122   18:40   0.00   55.4    64    5.6    94    10.3   99999.0    0.00 
 122   18:50   0.00   55.4    62    6.1    99    10.3   99999.0    0.00 
 122   19:00   0.00   55.4    61    4.4   133    10.3   99999.0    0.00 
 122   19:10   0.00   55.3    60    2.9   132     7.4   99999.0    0.00 
 122   19:20   0.00   55.5    58    1.5   205     4.2   99999.0    0.00 
 122   19:30   0.00   54.8    63    4.6   217     7.8   99999.0    0.00 
 122   19:40   0.00   54.5    64    2.9   246     5.6   99999.0    0.00 
 122   19:50   0.00   53.8    67    3.4   295     5.6   99999.0    0.00 
 122   20:00   0.00   53.3    70    1.6   296     5.6   99999.0    0.00 
 122   20:10   0.00   53.5    69    1.3   261     4.2   99999.0    0.00 
 122   20:20   0.00   53.3    74    3.3   188     6.0   99999.0    0.00 
 122   20:30   0.00   52.6    77    4.6   177     7.1   99999.0    0.01 
 122   20:40   0.00   52.1    78    3.5   124     6.7   99999.0    0.00 
 122   20:50   0.00   52.1    78    4.1    69     6.7   99999.0    0.01 
 122   21:00   0.00   52.7    73    4.0    71     6.3   99999.0    0.00 
 122   21:10   0.00   53.1    70    2.8    78     6.0   99999.0    0.01 
 122   21:20   0.00   52.8    72    2.0     8     5.3   99999.0    0.00 
 122   21:30   0.00   51.6    78    3.1   257     6.0   99999.0    0.00 
 122   21:40   0.00   51.6    80    2.5   205     4.6   99999.0    0.00 
 122   21:50   0.00   51.8    78    1.5   204     3.8   99999.0    0.00 
 122   22:00   0.00   52.2    77    0.7    79     3.8   99999.0    0.00 
 122   22:10   0.00   51.4    81    2.0   335     4.2   99999.0    0.00 
 122   22:20   0.00   50.7    83    1.0    24     2.8   99999.0    0.00 
 122   22:30   0.00   50.9    82    1.4     2     3.1   99999.0    0.00 
 122   22:40   0.00   50.8    83    3.0   348     4.6   99999.0    0.00 
 122   22:50   0.00   50.8    81    2.1     5     4.6   99999.0    0.00 
 122   23:00   0.00   51.0    80    1.7   246     3.1   99999.0    0.00 
 122   23:10   0.00   51.2    81    3.6   323     6.3   99999.0    0.00 
 122   23:20   0.00   51.2    82    0.9    24     3.5   99999.0    0.00 
 122   23:30   0.00   50.8    84    0.3   302     2.1   99999.0    0.00 
 122   23:40   0.00   50.7    85    2.1   319     3.5   99999.0    0.00 
 122   23:50   0.00   50.3    87    0.5   317     2.4   99999.0    0.00 
 123    0:00   0.00   50.8    86    0.3    35     1.7   99999.0    0.00 
 123    0:10   0.00   50.8    86    0.2     2     2.4   99999.0    0.00 
 123    0:20   0.00   50.1    87    1.6   308     2.8   99999.0    0.00 
 123    0:30   0.00   50.3    87    2.0    27     3.5   99999.0    0.00 
 123    0:40   0.00   50.9    84    0.5    18     1.7   99999.0    0.00 
 123    0:50   0.00   51.4    84    2.9    85     5.6   99999.0    0.00 
 123    1:00   0.00   51.4    83    2.3   171     4.6   99999.0    0.00 
 123    1:10   0.00   51.4    85    3.9   131     8.5   99999.0    0.00 
 123    1:20   0.00   51.3    85    2.1   139     4.9   99999.0    0.00 
 123    1:30   0.00   50.9    85    2.2    14     5.6   99999.0    0.00 
 123    1:40   0.00   50.4    86    3.9    23     4.9   99999.0    0.00 
 123    1:50   0.00   50.4    86    4.7   333     7.1   99999.0    0.00 
 123    2:00   0.00   50.3    86    1.6    30     3.8   99999.0    0.00 
 123    2:10   0.00   50.2    86    0.0   185     1.0   99999.0    0.00 
 123    2:20   0.00   49.2    88    0.8   275     3.1   99999.0    0.00 
 123    2:30   0.00   49.1    89    2.5    46     6.0   99999.0    0.00 
 123    2:40   0.00   49.7    87    1.7   106     3.5   99999.0    0.00 
 123    2:50   0.00   49.4    86    0.0   115     1.0   99999.0    0.00 
 123    3:00   0.00   48.8    88    0.4   250     2.8   99999.0    0.00 
 123    3:10   0.00   48.0    87    0.2   232     1.7   99999.0    0.00 
 123    3:20   0.00   47.0    89    0.8   318     3.5   99999.0    0.00 
 123    3:30   0.00   47.1    91    0.0    19     0.0   99999.0    0.00 
 123    3:40   0.00   46.7    92    0.0    18     1.0   99999.0    0.00 
 123    3:50   0.00   47.2    92    0.0   130     0.0   99999.0    0.00 
 123    4:00   0.00   46.9    92    0.2   227     1.7   99999.0    0.00 
 123    4:10   0.00   46.9    92    2.4   178     3.5   99999.0    0.00 
 123    4:20   0.00   46.9    92    0.3   202     2.1   99999.0    0.00 
 123    4:30   0.00   45.8    92    0.0    11     0.0   99999.0    0.00 
 123    4:40   0.00   46.4    93    1.1    35     2.8   99999.0    0.00 
 123    4:50   0.00   46.9    93    0.6    53     2.1   99999.0    0.00 
 123    5:00   0.00   46.9    92    1.1    39     2.4   99999.0    0.00 
 123    5:10   0.00   47.2    91    0.4    45     2.4   99999.0    0.00 
 123    5:20   0.00   47.0    90    2.1   109     3.8   99999.0    0.00 
 123    5:30   0.01   46.6    89    0.4   106     1.7   99999.0    0.00 
 123    5:40   0.02   45.9    90    0.7   140     2.8   99999.0    0.00 
 123    5:50   0.03   45.4    90    0.0   156     0.0   99999.0    0.00 
 123    6:00   0.05   45.5    91    2.5   188     3.8   99999.0    0.00 
 123    6:10   0.06   46.3    92    1.0   163     3.1   99999.0    0.00 
 123    6:20   0.07   46.8    92    0.4   111     2.4   99999.0    0.00 
 123    6:30   0.08   47.3    90    0.2    83     1.3   99999.0    0.00 
 123    6:40   0.10   47.8    89    0.0    47     1.3   99999.0    0.00 
 123    6:50   0.13   48.4    88    0.0   276     0.0   99999.0    0.00 
 123    7:00   0.16   49.1    87    0.0   282     0.0   99999.0    0.00 
 123    7:10   0.19   50.3    84    0.0   350     1.0   99999.0    0.00 
 123    7:20   0.21   51.3    81    0.0    51     0.0   99999.0    0.00 
 123    7:30   0.21   52.4    76    0.0   103     0.0   99999.0    0.00 
 123    7:40   0.26   53.4    73    0.0   114     0.0   99999.0    0.00 
 123    7:50   0.20   53.9    72    0.7   320     2.8   99999.0    0.00 
 123    8:00   0.24   54.3    69    0.7   286     2.8   99999.0    0.00 
 123    8:10   0.38   55.3    69    0.1   360     1.7   99999.0    0.00 
 123    8:20   0.42   56.6    64    0.8     3     3.1   99999.0    0.00 
 123    8:30   0.45   57.9    63    1.0   339     3.5   99999.0    0.00 
 123    8:40   0.39   58.3    59    1.5    33     3.5   99999.0    0.00 
 123    8:50   0.28   58.4    58    1.3   320     3.1   99999.0    0.00 
 123    9:00   0.43   59.4    56    2.4   262     4.6   99999.0    0.00 
 123    9:10   0.29   60.1    56    1.2   273     4.2   99999.0    0.00 
 123    9:20   0.32   60.5    54    1.7   286     3.8   99999.0    0.00 
 123    9:30   0.34   61.4    52    2.4   236     4.6   99999.0    0.00 
 123    9:40   0.41   62.2    49    2.3   262     4.2   99999.0    0.00 
 123    9:50   0.37   63.3    43    1.9   175     4.6   99999.0    0.00 
 123   10:00   0.48   63.9    40    2.0   150     4.6   99999.0    0.00 
 123   10:10   0.54   64.9    37    2.5   167     6.0   99999.0    0.00 
 123   10:20   0.66   66.2    34    2.7   170     5.3   99999.0    0.00 
 123   10:30   0.68   67.3    34    2.8   253     8.1   99999.0    0.00 
 123   10:40   0.72   67.4    34    3.0   330     6.0   99999.0    0.00 
 123   10:50   0.74   67.7    33    3.0    43     4.9   99999.0    0.00 
 123   11:00   0.63   67.6    32    3.2    35     4.9   99999.0    0.00 
 123   11:10   0.58   69.4    28    2.9   217     6.7   99999.0    0.00 
 123   11:20   0.59   69.8    27    2.6   191     5.6   99999.0    0.00 
 123   11:30   0.61   69.4    28    3.8   347     6.3   99999.0    0.00 
 123   11:40   0.68   69.7    27    3.5   310     5.6   99999.0    0.00 
 123   11:50   0.68   71.7    23    4.2   254     8.9   99999.0    0.00 
 123   12:00   0.66   72.3    21    3.3   218     6.7   99999.0    0.00 
 123   12:10   0.54   71.8    21    3.5   227     9.6   99999.0    0.00 
 123   12:20   0.47   70.4    22    3.5    50     7.8   99999.0    0.00 
 123   12:30   0.58   71.3    20    4.4    97     8.5   99999.0    0.00 
 123   12:40   0.49   71.7    20    2.9   129     6.0   99999.0    0.00 
 123   12:50   0.44   72.2    18    3.5    95     9.9   99999.0    0.00 
 123   13:00   0.36   71.9    17    3.5    89     8.5   99999.0    0.00 
 123   13:10   0.34   71.9    18    4.7   230     9.2   99999.0    0.00 
 123   13:20   0.33   70.5    18    5.1    23    11.4   99999.0    0.00 
 123   13:30   0.38   71.0    17    3.3   197     7.1   99999.0    0.00 
 123   13:40   0.49   72.4    15    7.4   216    12.4   99999.0    0.00 
 123   13:50   0.46   73.3    14    4.9   203     9.9   99999.0    0.00 
 123   14:00   0.23   73.0    15    6.7   237    13.1   99999.0    0.00 
 123   14:10   0.11   71.5    15    5.3   255    10.6   99999.0    0.00 
 123   14:20   0.10   62.9    35   19.8   307    36.7   99999.0    0.00 
 123   14:30   0.06   58.4    43   20.8   294    31.0   99999.0    0.00 
 123   14:40   0.04   55.3    53   21.2   308    29.2   99999.0    0.00 
 123   14:50   0.08   54.5    56   19.0   326    27.4   99999.0    0.00 
 123   15:00   0.15   54.9    55   19.6   351    29.6   99999.0    0.00 
 123   15:10   0.20   56.0    51   17.0   354    25.7   99999.0    0.00 
 123   15:20   0.21   57.1    49   11.9   343    17.1   99999.0    0.00 
 123   15:30   0.23   57.1    49   12.1    14    16.7   99999.0    0.00 
 123   15:40   0.16   57.1    48   12.5   349    19.2   99999.0    0.00 
 123   15:50   0.16   55.8    50   13.5    12    19.6   99999.0    0.00 
 123   16:00   0.31   54.7    53   11.3    28    18.1   99999.0    0.00 
 123   16:10   0.21   54.7    52   12.6    31    21.0   99999.0    0.00 
 123   16:20   0.17   55.3    50   11.3    36    18.5   99999.0    0.00 
 123   16:30   0.16   55.9    46   12.4    35    18.9   99999.0    0.00 
 123   16:40   0.10   55.9    46   11.9    28    16.4   99999.0    0.00 
 123   16:50   0.12   56.2    45   11.3    28    16.0   99999.0    0.00 
 123   17:00   0.18   57.0    45    8.8    29    12.8   99999.0    0.00 
 123   17:10   0.11   57.3    43    5.1    53     8.5   99999.0    0.00 
 123   17:20   0.11   57.9    42    6.3    88    11.7   99999.0    0.00 
 123   17:30   0.14   57.7    41    6.4    72    12.8   99999.0    0.00 
 123   17:40   0.15   57.7    42    4.3    61     9.6   99999.0    0.00 
 123   17:50   0.06   57.3    43    6.1    72    14.2   99999.0    0.00 
 123   18:00   0.05   56.2    45    7.3    54    14.2   99999.0    0.00 
 123   18:10   0.05   56.0    46    7.2    53    13.5   99999.0    0.00 
 123   18:20   0.05   55.7    48    5.7    41     9.2   99999.0    0.00 

Return to Lazy 5 Park graphs page.


Western Regional Climate Center,wrcc@dri.edu